sensor_id;sensor_type;location;lat;lon;timestamp;P1;durP1;ratioP1;P2;durP2;ratioP2
36597;SDS011;22607;49.550;11.940;2023-09-19T00:00:31;8.85;;;3.08;;
36597;SDS011;22607;49.550;11.940;2023-09-19T00:02:59;7.00;;;2.75;;
36597;SDS011;22607;49.550;11.940;2023-09-19T00:05:27;8.98;;;3.50;;
36597;SDS011;22607;49.550;11.940;2023-09-19T00:07:56;7.68;;;3.25;;
36597;SDS011;22607;49.550;11.940;2023-09-19T00:12:56;6.90;;;2.30;;
36597;SDS011;22607;49.550;11.940;2023-09-19T00:15:25;8.30;;;2.70;;
36597;SDS011;22607;49.550;11.940;2023-09-19T00:17:55;8.32;;;2.83;;
36597;SDS011;22607;49.550;11.940;2023-09-19T00:20:22;9.10;;;2.50;;
36597;SDS011;22607;49.550;11.940;2023-09-19T00:22:51;8.05;;;2.90;;
36597;SDS011;22607;49.550;11.940;2023-09-19T00:25:20;8.38;;;3.10;;
36597;SDS011;22607;49.550;11.940;2023-09-19T00:27:47;8.48;;;2.70;;
36597;SDS011;22607;49.550;11.940;2023-09-19T00:30:16;7.20;;;2.80;;
36597;SDS011;22607;49.550;11.940;2023-09-19T00:32:46;7.25;;;2.88;;
36597;SDS011;22607;49.550;11.940;2023-09-19T00:35:14;7.28;;;3.08;;
36597;SDS011;22607;49.550;11.940;2023-09-19T00:37:42;8.10;;;3.03;;
36597;SDS011;22607;49.550;11.940;2023-09-19T00:40:10;8.02;;;2.70;;
36597;SDS011;22607;49.550;11.940;2023-09-19T00:42:42;8.95;;;3.75;;
36597;SDS011;22607;49.550;11.940;2023-09-19T00:45:09;8.07;;;3.10;;
36597;SDS011;22607;49.550;11.940;2023-09-19T00:47:49;7.73;;;3.50;;
36597;SDS011;22607;49.550;11.940;2023-09-19T00:50:18;8.48;;;3.13;;
36597;SDS011;22607;49.550;11.940;2023-09-19T00:52:50;6.80;;;2.70;;
36597;SDS011;22607;49.550;11.940;2023-09-19T00:55:22;7.93;;;3.10;;
36597;SDS011;22607;49.550;11.940;2023-09-19T00:57:50;8.60;;;3.28;;
36597;SDS011;22607;49.550;11.940;2023-09-19T01:00:17;10.15;;;3.20;;
36597;SDS011;22607;49.550;11.940;2023-09-19T01:02:47;9.25;;;3.33;;
36597;SDS011;22607;49.550;11.940;2023-09-19T01:05:15;6.90;;;2.55;;
36597;SDS011;22607;49.550;11.940;2023-09-19T01:07:43;7.53;;;2.78;;
36597;SDS011;22607;49.550;11.940;2023-09-19T01:10:16;7.50;;;2.33;;
36597;SDS011;22607;49.550;11.940;2023-09-19T01:12:47;6.45;;;2.25;;
36597;SDS011;22607;49.550;11.940;2023-09-19T01:18:27;7.38;;;2.40;;
36597;SDS011;22607;49.550;11.940;2023-09-19T01:26:30;6.13;;;2.20;;
36597;SDS011;22607;49.550;11.940;2023-09-19T01:29:01;6.25;;;2.00;;
36597;SDS011;22607;49.550;11.940;2023-09-19T01:31:59;6.60;;;2.08;;
36597;SDS011;22607;49.550;11.940;2023-09-19T01:37:16;7.18;;;2.20;;
36597;SDS011;22607;49.550;11.940;2023-09-19T01:39:47;9.18;;;2.10;;
36597;SDS011;22607;49.550;11.940;2023-09-19T01:45:04;6.18;;;1.90;;
36597;SDS011;22607;49.550;11.940;2023-09-19T01:53:15;6.03;;;1.75;;
36597;SDS011;22607;49.550;11.940;2023-09-19T01:56:05;7.30;;;2.45;;
36597;SDS011;22607;49.550;11.940;2023-09-19T01:58:45;7.43;;;2.20;;
36597;SDS011;22607;49.550;11.940;2023-09-19T02:01:22;6.85;;;1.80;;
36597;SDS011;22607;49.550;11.940;2023-09-19T02:03:51;9.60;;;2.30;;
36597;SDS011;22607;49.550;11.940;2023-09-19T02:06:19;6.32;;;2.05;;
36597;SDS011;22607;49.550;11.940;2023-09-19T02:08:47;6.80;;;1.95;;
36597;SDS011;22607;49.550;11.940;2023-09-19T02:11:15;8.20;;;2.25;;
36597;SDS011;22607;49.550;11.940;2023-09-19T02:13:42;5.03;;;1.80;;
36597;SDS011;22607;49.550;11.940;2023-09-19T02:16:09;7.30;;;1.90;;
36597;SDS011;22607;49.550;11.940;2023-09-19T02:18:38;6.18;;;1.90;;
36597;SDS011;22607;49.550;11.940;2023-09-19T02:21:05;6.80;;;1.60;;
36597;SDS011;22607;49.550;11.940;2023-09-19T02:23:36;5.20;;;1.57;;
36597;SDS011;22607;49.550;11.940;2023-09-19T02:26:02;4.80;;;1.52;;
36597;SDS011;22607;49.550;11.940;2023-09-19T02:28:32;6.38;;;1.92;;
36597;SDS011;22607;49.550;11.940;2023-09-19T02:31:00;7.80;;;1.80;;
36597;SDS011;22607;49.550;11.940;2023-09-19T02:33:26;6.45;;;2.05;;
36597;SDS011;22607;49.550;11.940;2023-09-19T02:35:56;5.40;;;1.90;;
36597;SDS011;22607;49.550;11.940;2023-09-19T02:38:27;9.75;;;2.15;;
36597;SDS011;22607;49.550;11.940;2023-09-19T02:40:55;5.75;;;1.73;;
36597;SDS011;22607;49.550;11.940;2023-09-19T02:43:22;5.22;;;1.50;;
36597;SDS011;22607;49.550;11.940;2023-09-19T02:45:49;6.45;;;1.70;;
36597;SDS011;22607;49.550;11.940;2023-09-19T02:48:17;6.32;;;1.77;;
36597;SDS011;22607;49.550;11.940;2023-09-19T02:50:45;5.65;;;1.50;;
36597;SDS011;22607;49.550;11.940;2023-09-19T02:53:12;6.47;;;1.70;;
36597;SDS011;22607;49.550;11.940;2023-09-19T02:55:39;6.75;;;1.52;;
36597;SDS011;22607;49.550;11.940;2023-09-19T02:58:10;4.68;;;1.30;;
36597;SDS011;22607;49.550;11.940;2023-09-19T03:00:40;6.60;;;1.60;;
36597;SDS011;22607;49.550;11.940;2023-09-19T03:03:14;4.93;;;1.45;;
36597;SDS011;22607;49.550;11.940;2023-09-19T03:05:43;6.25;;;1.60;;
36597;SDS011;22607;49.550;11.940;2023-09-19T03:08:14;6.03;;;1.90;;
36597;SDS011;22607;49.550;11.940;2023-09-19T03:10:47;8.10;;;1.80;;
36597;SDS011;22607;49.550;11.940;2023-09-19T03:13:16;6.65;;;1.40;;
36597;SDS011;22607;49.550;11.940;2023-09-19T03:15:43;5.22;;;1.65;;
36597;SDS011;22607;49.550;11.940;2023-09-19T03:18:12;3.85;;;1.27;;
36597;SDS011;22607;49.550;11.940;2023-09-19T03:20:40;10.43;;;2.25;;
36597;SDS011;22607;49.550;11.940;2023-09-19T03:23:06;6.85;;;1.60;;
36597;SDS011;22607;49.550;11.940;2023-09-19T03:25:34;5.05;;;1.40;;
36597;SDS011;22607;49.550;11.940;2023-09-19T03:28:02;6.05;;;1.90;;
36597;SDS011;22607;49.550;11.940;2023-09-19T03:30:32;5.80;;;1.70;;
36597;SDS011;22607;49.550;11.940;2023-09-19T03:33:00;5.57;;;1.40;;
36597;SDS011;22607;49.550;11.940;2023-09-19T03:35:27;3.90;;;1.30;;
36597;SDS011;22607;49.550;11.940;2023-09-19T03:37:53;4.68;;;1.45;;
36597;SDS011;22607;49.550;11.940;2023-09-19T03:40:20;6.68;;;1.65;;
36597;SDS011;22607;49.550;11.940;2023-09-19T03:42:48;5.07;;;1.50;;
36597;SDS011;22607;49.550;11.940;2023-09-19T03:45:15;7.43;;;1.30;;
36597;SDS011;22607;49.550;11.940;2023-09-19T03:47:42;5.57;;;1.60;;
36597;SDS011;22607;49.550;11.940;2023-09-19T03:50:09;4.38;;;1.20;;
36597;SDS011;22607;49.550;11.940;2023-09-19T03:52:41;5.60;;;1.50;;
36597;SDS011;22607;49.550;11.940;2023-09-19T03:55:08;7.82;;;1.63;;
36597;SDS011;22607;49.550;11.940;2023-09-19T03:57:36;5.60;;;1.63;;
36597;SDS011;22607;49.550;11.940;2023-09-19T04:00:03;5.38;;;1.40;;
36597;SDS011;22607;49.550;11.940;2023-09-19T04:02:32;6.85;;;1.40;;
36597;SDS011;22607;49.550;11.940;2023-09-19T04:04:59;5.10;;;1.50;;
36597;SDS011;22607;49.550;11.940;2023-09-19T04:07:26;4.57;;;1.40;;
36597;SDS011;22607;49.550;11.940;2023-09-19T04:09:55;5.20;;;1.38;;
36597;SDS011;22607;49.550;11.940;2023-09-19T04:12:22;4.57;;;1.42;;
36597;SDS011;22607;49.550;11.940;2023-09-19T04:14:48;5.03;;;1.48;;
36597;SDS011;22607;49.550;11.940;2023-09-19T04:17:16;3.90;;;1.20;;
36597;SDS011;22607;49.550;11.940;2023-09-19T04:19:43;5.03;;;1.30;;
36597;SDS011;22607;49.550;11.940;2023-09-19T04:22:12;3.70;;;1.20;;
36597;SDS011;22607;49.550;11.940;2023-09-19T04:24:39;6.88;;;1.50;;
36597;SDS011;22607;49.550;11.940;2023-09-19T04:27:07;4.63;;;1.25;;
36597;SDS011;22607;49.550;11.940;2023-09-19T04:29:33;5.28;;;1.20;;
36597;SDS011;22607;49.550;11.940;2023-09-19T04:32:01;4.43;;;1.20;;
36597;SDS011;22607;49.550;11.940;2023-09-19T04:34:30;5.43;;;1.20;;
36597;SDS011;22607;49.550;11.940;2023-09-19T04:36:57;5.38;;;1.30;;
36597;SDS011;22607;49.550;11.940;2023-09-19T04:39:24;4.95;;;1.20;;
36597;SDS011;22607;49.550;11.940;2023-09-19T04:41:52;5.35;;;1.30;;
36597;SDS011;22607;49.550;11.940;2023-09-19T04:44:19;4.88;;;1.30;;
36597;SDS011;22607;49.550;11.940;2023-09-19T04:46:45;4.15;;;1.30;;
36597;SDS011;22607;49.550;11.940;2023-09-19T04:49:13;5.47;;;1.23;;
36597;SDS011;22607;49.550;11.940;2023-09-19T04:51:39;4.63;;;1.30;;
36597;SDS011;22607;49.550;11.940;2023-09-19T04:54:07;4.53;;;1.17;;
36597;SDS011;22607;49.550;11.940;2023-09-19T04:56:33;4.93;;;1.20;;
36597;SDS011;22607;49.550;11.940;2023-09-19T04:59:00;4.18;;;1.10;;
36597;SDS011;22607;49.550;11.940;2023-09-19T05:01:27;3.88;;;1.23;;
36597;SDS011;22607;49.550;11.940;2023-09-19T05:03:53;5.03;;;1.67;;
36597;SDS011;22607;49.550;11.940;2023-09-19T05:06:20;4.13;;;1.23;;
36597;SDS011;22607;49.550;11.940;2023-09-19T05:08:47;7.82;;;1.73;;
36597;SDS011;22607;49.550;11.940;2023-09-19T05:11:18;4.68;;;1.40;;
36597;SDS011;22607;49.550;11.940;2023-09-19T05:13:45;6.50;;;1.60;;
36597;SDS011;22607;49.550;11.940;2023-09-19T05:16:12;4.65;;;1.40;;
36597;SDS011;22607;49.550;11.940;2023-09-19T05:18:38;8.30;;;1.52;;
36597;SDS011;22607;49.550;11.940;2023-09-19T05:21:05;5.60;;;1.65;;
36597;SDS011;22607;49.550;11.940;2023-09-19T05:23:32;5.60;;;1.60;;
36597;SDS011;22607;49.550;11.940;2023-09-19T05:25:59;5.75;;;1.48;;
36597;SDS011;22607;49.550;11.940;2023-09-19T05:28:27;5.07;;;1.52;;
36597;SDS011;22607;49.550;11.940;2023-09-19T05:30:53;4.57;;;1.30;;
36597;SDS011;22607;49.550;11.940;2023-09-19T05:33:20;6.80;;;1.67;;
36597;SDS011;22607;49.550;11.940;2023-09-19T05:35:50;5.15;;;1.50;;
36597;SDS011;22607;49.550;11.940;2023-09-19T05:38:16;5.47;;;1.20;;
36597;SDS011;22607;49.550;11.940;2023-09-19T05:40:45;6.53;;;1.67;;
36597;SDS011;22607;49.550;11.940;2023-09-19T05:43:13;5.75;;;1.30;;
36597;SDS011;22607;49.550;11.940;2023-09-19T05:45:40;5.70;;;1.23;;
36597;SDS011;22607;49.550;11.940;2023-09-19T05:48:08;7.18;;;1.95;;
36597;SDS011;22607;49.550;11.940;2023-09-19T05:50:35;6.10;;;1.50;;
36597;SDS011;22607;49.550;11.940;2023-09-19T05:53:02;3.83;;;1.30;;
36597;SDS011;22607;49.550;11.940;2023-09-19T05:55:31;9.48;;;1.70;;
36597;SDS011;22607;49.550;11.940;2023-09-19T05:57:58;5.18;;;1.30;;
36597;SDS011;22607;49.550;11.940;2023-09-19T06:00:25;5.88;;;1.23;;
36597;SDS011;22607;49.550;11.940;2023-09-19T06:02:54;5.80;;;1.45;;
36597;SDS011;22607;49.550;11.940;2023-09-19T06:05:23;5.43;;;1.30;;
36597;SDS011;22607;49.550;11.940;2023-09-19T06:10:20;4.80;;;1.30;;
36597;SDS011;22607;49.550;11.940;2023-09-19T06:12:47;5.47;;;1.27;;
36597;SDS011;22607;49.550;11.940;2023-09-19T06:15:14;4.63;;;1.50;;
36597;SDS011;22607;49.550;11.940;2023-09-19T06:17:42;5.75;;;1.67;;
36597;SDS011;22607;49.550;11.940;2023-09-19T06:20:13;7.20;;;1.33;;
36597;SDS011;22607;49.550;11.940;2023-09-19T06:22:44;4.13;;;1.30;;
36597;SDS011;22607;49.550;11.940;2023-09-19T06:25:12;4.80;;;1.33;;
36597;SDS011;22607;49.550;11.940;2023-09-19T06:27:47;3.70;;;1.25;;
36597;SDS011;22607;49.550;11.940;2023-09-19T06:30:21;5.15;;;1.85;;
36597;SDS011;22607;49.550;11.940;2023-09-19T06:32:56;5.20;;;1.33;;
36597;SDS011;22607;49.550;11.940;2023-09-19T06:35:24;5.85;;;1.40;;
36597;SDS011;22607;49.550;11.940;2023-09-19T06:37:55;7.07;;;1.20;;
36597;SDS011;22607;49.550;11.940;2023-09-19T06:40:25;4.97;;;1.40;;
36597;SDS011;22607;49.550;11.940;2023-09-19T06:42:52;4.97;;;1.45;;
36597;SDS011;22607;49.550;11.940;2023-09-19T06:45:22;6.45;;;1.70;;
36597;SDS011;22607;49.550;11.940;2023-09-19T06:47:53;4.53;;;1.40;;
36597;SDS011;22607;49.550;11.940;2023-09-19T06:50:24;5.30;;;1.40;;
36597;SDS011;22607;49.550;11.940;2023-09-19T06:52:52;6.85;;;1.50;;
36597;SDS011;22607;49.550;11.940;2023-09-19T06:55:22;5.95;;;1.40;;
36597;SDS011;22607;49.550;11.940;2023-09-19T06:57:51;4.13;;;1.30;;
36597;SDS011;22607;49.550;11.940;2023-09-19T07:00:20;5.13;;;1.55;;
36597;SDS011;22607;49.550;11.940;2023-09-19T07:02:57;5.80;;;1.30;;
36597;SDS011;22607;49.550;11.940;2023-09-19T07:05:34;4.28;;;1.10;;
36597;SDS011;22607;49.550;11.940;2023-09-19T07:08:09;4.15;;;1.27;;
36597;SDS011;22607;49.550;11.940;2023-09-19T07:10:39;4.70;;;1.35;;
36597;SDS011;22607;49.550;11.940;2023-09-19T07:13:16;4.68;;;1.27;;
36597;SDS011;22607;49.550;11.940;2023-09-19T07:15:44;4.97;;;1.23;;
36597;SDS011;22607;49.550;11.940;2023-09-19T07:18:14;5.15;;;1.25;;
36597;SDS011;22607;49.550;11.940;2023-09-19T07:20:43;4.47;;;1.30;;
36597;SDS011;22607;49.550;11.940;2023-09-19T07:23:17;5.82;;;1.30;;
36597;SDS011;22607;49.550;11.940;2023-09-19T07:25:44;4.05;;;1.20;;
36597;SDS011;22607;49.550;11.940;2023-09-19T07:28:12;6.38;;;1.30;;
36597;SDS011;22607;49.550;11.940;2023-09-19T07:30:39;5.25;;;1.10;;
36597;SDS011;22607;49.550;11.940;2023-09-19T07:33:07;4.38;;;1.17;;
36597;SDS011;22607;49.550;11.940;2023-09-19T07:35:37;4.03;;;1.23;;
36597;SDS011;22607;49.550;11.940;2023-09-19T07:38:08;5.25;;;1.20;;
36597;SDS011;22607;49.550;11.940;2023-09-19T07:40:36;3.58;;;1.00;;
36597;SDS011;22607;49.550;11.940;2023-09-19T07:43:03;5.78;;;1.27;;
36597;SDS011;22607;49.550;11.940;2023-09-19T07:45:31;4.32;;;1.20;;
36597;SDS011;22607;49.550;11.940;2023-09-19T07:47:58;4.80;;;1.23;;
36597;SDS011;22607;49.550;11.940;2023-09-19T07:50:50;5.75;;;1.23;;
36597;SDS011;22607;49.550;11.940;2023-09-19T07:53:17;3.90;;;1.10;;
36597;SDS011;22607;49.550;11.940;2023-09-19T07:55:44;4.00;;;1.20;;
36597;SDS011;22607;49.550;11.940;2023-09-19T07:58:14;6.18;;;1.20;;
36597;SDS011;22607;49.550;11.940;2023-09-19T08:00:42;5.32;;;1.50;;
36597;SDS011;22607;49.550;11.940;2023-09-19T08:03:08;5.10;;;1.20;;
36597;SDS011;22607;49.550;11.940;2023-09-19T08:05:43;6.30;;;1.35;;
36597;SDS011;22607;49.550;11.940;2023-09-19T08:08:12;4.90;;;1.20;;
36597;SDS011;22607;49.550;11.940;2023-09-19T08:10:41;4.07;;;1.00;;
36597;SDS011;22607;49.550;11.940;2023-09-19T08:13:09;4.00;;;1.20;;
36597;SDS011;22607;49.550;11.940;2023-09-19T08:15:44;3.85;;;1.10;;
36597;SDS011;22607;49.550;11.940;2023-09-19T08:18:13;3.40;;;1.13;;
36597;SDS011;22607;49.550;11.940;2023-09-19T08:20:40;4.22;;;1.25;;
36597;SDS011;22607;49.550;11.940;2023-09-19T08:23:08;3.80;;;1.25;;
36597;SDS011;22607;49.550;11.940;2023-09-19T08:25:35;5.32;;;1.23;;
36597;SDS011;22607;49.550;11.940;2023-09-19T08:28:02;4.07;;;1.15;;
36597;SDS011;22607;49.550;11.940;2023-09-19T08:30:29;3.95;;;1.15;;
36597;SDS011;22607;49.550;11.940;2023-09-19T08:32:57;8.10;;;1.73;;
36597;SDS011;22607;49.550;11.940;2023-09-19T08:35:25;3.83;;;1.20;;
36597;SDS011;22607;49.550;11.940;2023-09-19T08:37:52;4.57;;;1.30;;
36597;SDS011;22607;49.550;11.940;2023-09-19T08:40:19;4.68;;;1.20;;
36597;SDS011;22607;49.550;11.940;2023-09-19T08:45:17;6.18;;;1.00;;
36597;SDS011;22607;49.550;11.940;2023-09-19T08:47:50;6.97;;;1.42;;
36597;SDS011;22607;49.550;11.940;2023-09-19T08:50:27;4.53;;;1.10;;
36597;SDS011;22607;49.550;11.940;2023-09-19T08:52:55;5.35;;;1.20;;
36597;SDS011;22607;49.550;11.940;2023-09-19T08:55:27;4.20;;;1.10;;
36597;SDS011;22607;49.550;11.940;2023-09-19T08:58:03;4.93;;;1.23;;
36597;SDS011;22607;49.550;11.940;2023-09-19T09:00:33;5.25;;;1.20;;
36597;SDS011;22607;49.550;11.940;2023-09-19T09:03:01;4.63;;;1.42;;
36597;SDS011;22607;49.550;11.940;2023-09-19T09:05:29;5.95;;;1.30;;
36597;SDS011;22607;49.550;11.940;2023-09-19T09:07:58;3.90;;;1.27;;
36597;SDS011;22607;49.550;11.940;2023-09-19T09:10:26;6.35;;;1.40;;
36597;SDS011;22607;49.550;11.940;2023-09-19T09:12:53;4.82;;;1.00;;
36597;SDS011;22607;49.550;11.940;2023-09-19T09:15:22;4.47;;;1.35;;
36597;SDS011;22607;49.550;11.940;2023-09-19T09:17:50;6.07;;;1.60;;
36597;SDS011;22607;49.550;11.940;2023-09-19T09:20:19;4.85;;;1.30;;
36597;SDS011;22607;49.550;11.940;2023-09-19T09:22:56;5.93;;;1.30;;
36597;SDS011;22607;49.550;11.940;2023-09-19T09:28:25;5.22;;;1.23;;
36597;SDS011;22607;49.550;11.940;2023-09-19T09:30:54;4.82;;;1.08;;
36597;SDS011;22607;49.550;11.940;2023-09-19T09:33:21;4.20;;;1.10;;
36597;SDS011;22607;49.550;11.940;2023-09-19T09:35:53;5.35;;;1.10;;
36597;SDS011;22607;49.550;11.940;2023-09-19T09:38:23;5.18;;;1.00;;
36597;SDS011;22607;49.550;11.940;2023-09-19T09:40:54;5.15;;;1.23;;
36597;SDS011;22607;49.550;11.940;2023-09-19T09:43:37;4.95;;;1.15;;
36597;SDS011;22607;49.550;11.940;2023-09-19T09:49:05;4.75;;;1.17;;
36597;SDS011;22607;49.550;11.940;2023-09-19T09:51:43;4.28;;;1.10;;
36597;SDS011;22607;49.550;11.940;2023-09-19T09:54:24;3.75;;;1.02;;
36597;SDS011;22607;49.550;11.940;2023-09-19T09:57:01;4.80;;;0.98;;
36597;SDS011;22607;49.550;11.940;2023-09-19T09:59:44;4.57;;;1.23;;
36597;SDS011;22607;49.550;11.940;2023-09-19T10:02:27;4.45;;;1.20;;
36597;SDS011;22607;49.550;11.940;2023-09-19T10:04:56;3.63;;;1.08;;
36597;SDS011;22607;49.550;11.940;2023-09-19T10:07:41;6.18;;;1.25;;
36597;SDS011;22607;49.550;11.940;2023-09-19T10:10:28;4.00;;;1.00;;
36597;SDS011;22607;49.550;11.940;2023-09-19T10:12:56;6.37;;;1.30;;
36597;SDS011;22607;49.550;11.940;2023-09-19T10:15:31;3.90;;;1.10;;
36597;SDS011;22607;49.550;11.940;2023-09-19T10:18:04;3.45;;;1.25;;
36597;SDS011;22607;49.550;11.940;2023-09-19T10:20:31;3.70;;;1.02;;
36597;SDS011;22607;49.550;11.940;2023-09-19T10:23:05;5.10;;;1.52;;
36597;SDS011;22607;49.550;11.940;2023-09-19T10:25:40;3.75;;;1.05;;
36597;SDS011;22607;49.550;11.940;2023-09-19T10:28:10;4.07;;;1.00;;
36597;SDS011;22607;49.550;11.940;2023-09-19T10:30:42;6.78;;;1.33;;
36597;SDS011;22607;49.550;11.940;2023-09-19T10:33:12;3.72;;;0.95;;
36597;SDS011;22607;49.550;11.940;2023-09-19T10:35:43;2.83;;;0.93;;
36597;SDS011;22607;49.550;11.940;2023-09-19T10:38:12;4.90;;;1.27;;
36597;SDS011;22607;49.550;11.940;2023-09-19T10:40:44;3.60;;;1.00;;
36597;SDS011;22607;49.550;11.940;2023-09-19T10:43:17;5.13;;;1.33;;
36597;SDS011;22607;49.550;11.940;2023-09-19T10:45:45;6.00;;;1.50;;
36597;SDS011;22607;49.550;11.940;2023-09-19T10:48:19;5.00;;;1.10;;
36597;SDS011;22607;49.550;11.940;2023-09-19T10:50:50;2.88;;;0.90;;
36597;SDS011;22607;49.550;11.940;2023-09-19T10:53:25;3.15;;;0.90;;
36597;SDS011;22607;49.550;11.940;2023-09-19T10:55:56;5.22;;;1.23;;
36597;SDS011;22607;49.550;11.940;2023-09-19T10:58:26;4.15;;;1.10;;
36597;SDS011;22607;49.550;11.940;2023-09-19T11:01:00;4.03;;;1.08;;
36597;SDS011;22607;49.550;11.940;2023-09-19T11:03:39;5.75;;;1.15;;
36597;SDS011;22607;49.550;11.940;2023-09-19T11:06:12;4.28;;;1.20;;
36597;SDS011;22607;49.550;11.940;2023-09-19T11:09:00;5.05;;;1.30;;
36597;SDS011;22607;49.550;11.940;2023-09-19T11:11:51;4.55;;;1.35;;
36597;SDS011;22607;49.550;11.940;2023-09-19T11:23:17;3.88;;;1.05;;
36597;SDS011;22607;49.550;11.940;2023-09-19T11:25:43;3.50;;;1.10;;
36597;SDS011;22607;49.550;11.940;2023-09-19T11:30:45;3.38;;;1.05;;
36597;SDS011;22607;49.550;11.940;2023-09-19T11:33:29;5.47;;;1.40;;
36597;SDS011;22607;49.550;11.940;2023-09-19T11:36:00;2.53;;;1.05;;
36597;SDS011;22607;49.550;11.940;2023-09-19T11:43:49;4.07;;;1.10;;
36597;SDS011;22607;49.550;11.940;2023-09-19T11:49:28;3.95;;;1.20;;
36597;SDS011;22607;49.550;11.940;2023-09-19T11:52:00;3.70;;;1.00;;
36597;SDS011;22607;49.550;11.940;2023-09-19T11:54:31;5.97;;;1.20;;
36597;SDS011;22607;49.550;11.940;2023-09-19T11:56:59;4.60;;;1.25;;
36597;SDS011;22607;49.550;11.940;2023-09-19T11:59:27;4.53;;;1.20;;
36597;SDS011;22607;49.550;11.940;2023-09-19T12:01:56;4.97;;;1.38;;
36597;SDS011;22607;49.550;11.940;2023-09-19T12:04:34;4.03;;;1.25;;
36597;SDS011;22607;49.550;11.940;2023-09-19T12:07:06;4.95;;;1.75;;
36597;SDS011;22607;49.550;11.940;2023-09-19T12:09:40;3.25;;;1.00;;
36597;SDS011;22607;49.550;11.940;2023-09-19T12:12:11;4.85;;;1.35;;
36597;SDS011;22607;49.550;11.940;2023-09-19T12:14:47;6.28;;;1.45;;
36597;SDS011;22607;49.550;11.940;2023-09-19T12:17:17;4.22;;;1.17;;
36597;SDS011;22607;49.550;11.940;2023-09-19T12:19:51;3.55;;;1.00;;
36597;SDS011;22607;49.550;11.940;2023-09-19T12:22:19;4.93;;;1.33;;
36597;SDS011;22607;49.550;11.940;2023-09-19T12:24:49;5.82;;;1.35;;
36597;SDS011;22607;49.550;11.940;2023-09-19T12:27:17;4.55;;;1.42;;
36597;SDS011;22607;49.550;11.940;2023-09-19T12:29:44;4.38;;;1.17;;
36597;SDS011;22607;49.550;11.940;2023-09-19T12:32:12;4.70;;;1.20;;
36597;SDS011;22607;49.550;11.940;2023-09-19T12:34:40;5.70;;;1.23;;
36597;SDS011;22607;49.550;11.940;2023-09-19T12:37:14;5.25;;;1.42;;
36597;SDS011;22607;49.550;11.940;2023-09-19T12:40:08;5.88;;;1.20;;
36597;SDS011;22607;49.550;11.940;2023-09-19T12:42:44;5.00;;;1.25;;
36597;SDS011;22607;49.550;11.940;2023-09-19T12:45:11;6.05;;;1.45;;
36597;SDS011;22607;49.550;11.940;2023-09-19T12:47:40;4.00;;;1.42;;
36597;SDS011;22607;49.550;11.940;2023-09-19T12:50:13;2.85;;;1.00;;
36597;SDS011;22607;49.550;11.940;2023-09-19T12:52:44;4.45;;;1.20;;
36597;SDS011;22607;49.550;11.940;2023-09-19T12:55:19;4.18;;;1.27;;
36597;SDS011;22607;49.550;11.940;2023-09-19T13:00:37;3.45;;;1.00;;
36597;SDS011;22607;49.550;11.940;2023-09-19T13:03:09;4.20;;;1.10;;
36597;SDS011;22607;49.550;11.940;2023-09-19T13:08:18;5.72;;;1.45;;
36597;SDS011;22607;49.550;11.940;2023-09-19T13:11:02;5.38;;;1.13;;
36597;SDS011;22607;49.550;11.940;2023-09-19T13:13:37;4.78;;;1.15;;
36597;SDS011;22607;49.550;11.940;2023-09-19T13:16:09;4.95;;;1.00;;
36597;SDS011;22607;49.550;11.940;2023-09-19T13:18:42;3.83;;;1.10;;
36597;SDS011;22607;49.550;11.940;2023-09-19T13:21:13;4.03;;;1.02;;
36597;SDS011;22607;49.550;11.940;2023-09-19T13:23:50;4.72;;;1.10;;
36597;SDS011;22607;49.550;11.940;2023-09-19T13:26:18;3.30;;;0.95;;
36597;SDS011;22607;49.550;11.940;2023-09-19T13:28:55;5.00;;;1.10;;
36597;SDS011;22607;49.550;11.940;2023-09-19T13:31:22;4.60;;;0.90;;
36597;SDS011;22607;49.550;11.940;2023-09-19T13:33:50;4.32;;;1.00;;
36597;SDS011;22607;49.550;11.940;2023-09-19T13:36:18;5.45;;;1.13;;
36597;SDS011;22607;49.550;11.940;2023-09-19T13:38:45;5.28;;;1.20;;
36597;SDS011;22607;49.550;11.940;2023-09-19T13:41:15;5.88;;;1.05;;
36597;SDS011;22607;49.550;11.940;2023-09-19T13:43:42;5.18;;;1.30;;
36597;SDS011;22607;49.550;11.940;2023-09-19T13:46:12;7.45;;;1.25;;
36597;SDS011;22607;49.550;11.940;2023-09-19T13:48:42;5.43;;;1.33;;
36597;SDS011;22607;49.550;11.940;2023-09-19T13:51:08;3.67;;;1.00;;
36597;SDS011;22607;49.550;11.940;2023-09-19T13:53:35;5.45;;;1.00;;
36597;SDS011;22607;49.550;11.940;2023-09-19T13:56:02;3.85;;;1.05;;
36597;SDS011;22607;49.550;11.940;2023-09-19T13:58:29;4.72;;;0.90;;
36597;SDS011;22607;49.550;11.940;2023-09-19T14:00:57;4.03;;;1.00;;
36597;SDS011;22607;49.550;11.940;2023-09-19T14:03:24;3.67;;;0.90;;
36597;SDS011;22607;49.550;11.940;2023-09-19T14:05:54;4.70;;;1.10;;
36597;SDS011;22607;49.550;11.940;2023-09-19T14:08:21;5.15;;;1.10;;
36597;SDS011;22607;49.550;11.940;2023-09-19T14:10:49;4.88;;;1.23;;
36597;SDS011;22607;49.550;11.940;2023-09-19T14:13:16;4.95;;;1.10;;
36597;SDS011;22607;49.550;11.940;2023-09-19T14:15:43;4.68;;;1.08;;
36597;SDS011;22607;49.550;11.940;2023-09-19T14:18:09;5.57;;;1.10;;
36597;SDS011;22607;49.550;11.940;2023-09-19T14:20:38;5.85;;;1.30;;
36597;SDS011;22607;49.550;11.940;2023-09-19T14:23:06;4.25;;;1.00;;
36597;SDS011;22607;49.550;11.940;2023-09-19T14:25:36;4.78;;;0.90;;
36597;SDS011;22607;49.550;11.940;2023-09-19T14:30:33;4.63;;;1.00;;
36597;SDS011;22607;49.550;11.940;2023-09-19T14:33:00;4.05;;;0.93;;
36597;SDS011;22607;49.550;11.940;2023-09-19T14:35:27;5.97;;;1.45;;
36597;SDS011;22607;49.550;11.940;2023-09-19T14:37:53;4.32;;;1.02;;
36597;SDS011;22607;49.550;11.940;2023-09-19T14:40:21;4.50;;;1.33;;
36597;SDS011;22607;49.550;11.940;2023-09-19T14:42:48;4.40;;;1.10;;
36597;SDS011;22607;49.550;11.940;2023-09-19T14:45:18;5.38;;;1.10;;
36597;SDS011;22607;49.550;11.940;2023-09-19T14:47:48;3.00;;;0.90;;
36597;SDS011;22607;49.550;11.940;2023-09-19T14:50:18;4.53;;;1.10;;
36597;SDS011;22607;49.550;11.940;2023-09-19T14:52:46;7.18;;;1.20;;
36597;SDS011;22607;49.550;11.940;2023-09-19T14:55:13;3.38;;;0.90;;
36597;SDS011;22607;49.550;11.940;2023-09-19T14:57:41;6.10;;;1.00;;
36597;SDS011;22607;49.550;11.940;2023-09-19T15:00:11;4.30;;;1.10;;
36597;SDS011;22607;49.550;11.940;2023-09-19T15:02:39;4.78;;;1.08;;
36597;SDS011;22607;49.550;11.940;2023-09-19T15:05:11;5.55;;;1.20;;
36597;SDS011;22607;49.550;11.940;2023-09-19T15:07:42;5.25;;;1.10;;
36597;SDS011;22607;49.550;11.940;2023-09-19T15:10:08;5.72;;;1.00;;
36597;SDS011;22607;49.550;11.940;2023-09-19T15:12:36;3.85;;;0.95;;
36597;SDS011;22607;49.550;11.940;2023-09-19T15:15:04;3.60;;;1.00;;
36597;SDS011;22607;49.550;11.940;2023-09-19T15:17:35;5.05;;;1.10;;
36597;SDS011;22607;49.550;11.940;2023-09-19T15:20:04;5.53;;;1.17;;
36597;SDS011;22607;49.550;11.940;2023-09-19T15:22:33;3.58;;;0.77;;
36597;SDS011;22607;49.550;11.940;2023-09-19T15:25:01;3.08;;;0.77;;
36597;SDS011;22607;49.550;11.940;2023-09-19T15:27:30;3.50;;;1.08;;
36597;SDS011;22607;49.550;11.940;2023-09-19T15:30:00;4.43;;;1.10;;
36597;SDS011;22607;49.550;11.940;2023-09-19T15:32:31;5.03;;;1.13;;
36597;SDS011;22607;49.550;11.940;2023-09-19T15:34:58;3.83;;;1.05;;
36597;SDS011;22607;49.550;11.940;2023-09-19T15:37:24;5.15;;;1.10;;
36597;SDS011;22607;49.550;11.940;2023-09-19T15:39:52;5.53;;;1.10;;
36597;SDS011;22607;49.550;11.940;2023-09-19T15:42:19;4.53;;;1.10;;
36597;SDS011;22607;49.550;11.940;2023-09-19T15:44:46;4.90;;;1.20;;
36597;SDS011;22607;49.550;11.940;2023-09-19T15:47:16;3.13;;;0.82;;
36597;SDS011;22607;49.550;11.940;2023-09-19T15:49:44;4.25;;;1.00;;